sensor_id;sensor_type;location;lat;lon;timestamp;P1;durP1;ratioP1;P2;durP2;ratioP2
31746;SDS011;18319;48.974;8.462;2023-03-01T00:01:36;7.73;;;6.83;;
31746;SDS011;18319;48.974;8.462;2023-03-01T00:04:03;7.20;;;6.17;;
31746;SDS011;18319;48.974;8.462;2023-03-01T00:06:30;8.37;;;6.47;;
31746;SDS011;18319;48.974;8.462;2023-03-01T00:08:56;8.63;;;7.13;;
31746;SDS011;18319;48.974;8.462;2023-03-01T00:11:24;11.43;;;7.67;;
31746;SDS011;18319;48.974;8.462;2023-03-01T00:13:54;9.07;;;6.87;;
31746;SDS011;18319;48.974;8.462;2023-03-01T00:16:23;11.20;;;6.70;;
31746;SDS011;18319;48.974;8.462;2023-03-01T00:18:51;7.73;;;6.77;;
31746;SDS011;18319;48.974;8.462;2023-03-01T00:21:18;9.70;;;7.23;;
31746;SDS011;18319;48.974;8.462;2023-03-01T00:23:47;11.70;;;7.23;;
31746;SDS011;18319;48.974;8.462;2023-03-01T00:26:15;8.73;;;7.03;;
31746;SDS011;18319;48.974;8.462;2023-03-01T00:28:42;10.50;;;7.10;;
31746;SDS011;18319;48.974;8.462;2023-03-01T00:31:11;9.80;;;7.27;;
31746;SDS011;18319;48.974;8.462;2023-03-01T00:33:39;9.97;;;7.13;;
31746;SDS011;18319;48.974;8.462;2023-03-01T00:36:06;8.47;;;7.30;;
31746;SDS011;18319;48.974;8.462;2023-03-01T00:38:34;11.07;;;7.63;;
31746;SDS011;18319;48.974;8.462;2023-03-01T00:41:02;9.77;;;7.50;;
31746;SDS011;18319;48.974;8.462;2023-03-01T00:43:30;13.43;;;8.20;;
31746;SDS011;18319;48.974;8.462;2023-03-01T00:46:02;10.37;;;6.57;;
31746;SDS011;18319;48.974;8.462;2023-03-01T00:48:31;13.13;;;6.80;;
31746;SDS011;18319;48.974;8.462;2023-03-01T00:51:03;8.00;;;6.90;;
31746;SDS011;18319;48.974;8.462;2023-03-01T00:53:31;12.60;;;6.83;;
31746;SDS011;18319;48.974;8.462;2023-03-01T00:55:58;10.63;;;6.40;;
31746;SDS011;18319;48.974;8.462;2023-03-01T00:58:25;9.67;;;6.93;;
31746;SDS011;18319;48.974;8.462;2023-03-01T01:00:52;10.17;;;7.07;;
31746;SDS011;18319;48.974;8.462;2023-03-01T01:03:19;11.20;;;7.07;;
31746;SDS011;18319;48.974;8.462;2023-03-01T01:05:48;12.77;;;8.17;;
31746;SDS011;18319;48.974;8.462;2023-03-01T01:08:14;9.20;;;6.47;;
31746;SDS011;18319;48.974;8.462;2023-03-01T01:10:42;10.37;;;7.57;;
31746;SDS011;18319;48.974;8.462;2023-03-01T01:13:09;9.53;;;6.93;;
31746;SDS011;18319;48.974;8.462;2023-03-01T01:15:37;8.97;;;6.80;;
31746;SDS011;18319;48.974;8.462;2023-03-01T01:18:04;10.43;;;7.53;;
31746;SDS011;18319;48.974;8.462;2023-03-01T01:20:32;10.53;;;7.23;;
31746;SDS011;18319;48.974;8.462;2023-03-01T01:23:02;9.90;;;7.13;;
31746;SDS011;18319;48.974;8.462;2023-03-01T01:25:33;9.70;;;6.97;;
31746;SDS011;18319;48.974;8.462;2023-03-01T01:28:00;10.13;;;7.73;;
31746;SDS011;18319;48.974;8.462;2023-03-01T01:30:27;10.17;;;7.60;;
31746;SDS011;18319;48.974;8.462;2023-03-01T01:32:54;14.10;;;8.57;;
31746;SDS011;18319;48.974;8.462;2023-03-01T01:35:21;15.03;;;7.87;;
31746;SDS011;18319;48.974;8.462;2023-03-01T01:37:47;10.63;;;7.43;;
31746;SDS011;18319;48.974;8.462;2023-03-01T01:40:15;10.70;;;7.67;;
31746;SDS011;18319;48.974;8.462;2023-03-01T01:42:42;12.57;;;6.83;;
31746;SDS011;18319;48.974;8.462;2023-03-01T01:45:26;9.27;;;6.80;;
31746;SDS011;18319;48.974;8.462;2023-03-01T01:47:59;8.37;;;6.27;;
31746;SDS011;18319;48.974;8.462;2023-03-01T01:50:30;11.43;;;6.80;;
31746;SDS011;18319;48.974;8.462;2023-03-01T01:53:04;11.80;;;7.33;;
31746;SDS011;18319;48.974;8.462;2023-03-01T01:55:34;8.53;;;7.47;;
31746;SDS011;18319;48.974;8.462;2023-03-01T01:58:04;9.47;;;7.67;;
31746;SDS011;18319;48.974;8.462;2023-03-01T02:00:34;10.87;;;7.50;;
31746;SDS011;18319;48.974;8.462;2023-03-01T02:03:03;13.27;;;8.70;;
31746;SDS011;18319;48.974;8.462;2023-03-01T02:05:35;11.33;;;8.07;;
31746;SDS011;18319;48.974;8.462;2023-03-01T02:08:08;10.37;;;7.47;;
31746;SDS011;18319;48.974;8.462;2023-03-01T02:10:38;11.53;;;7.77;;
31746;SDS011;18319;48.974;8.462;2023-03-01T02:13:07;11.23;;;7.70;;
31746;SDS011;18319;48.974;8.462;2023-03-01T02:15:34;11.23;;;6.33;;
31746;SDS011;18319;48.974;8.462;2023-03-01T02:18:03;11.30;;;8.00;;
31746;SDS011;18319;48.974;8.462;2023-03-01T02:20:33;9.23;;;8.00;;
31746;SDS011;18319;48.974;8.462;2023-03-01T02:23:02;10.63;;;7.60;;
31746;SDS011;18319;48.974;8.462;2023-03-01T02:25:34;10.83;;;7.40;;
31746;SDS011;18319;48.974;8.462;2023-03-01T02:28:08;10.73;;;7.23;;
31746;SDS011;18319;48.974;8.462;2023-03-01T02:30:39;12.30;;;7.97;;
31746;SDS011;18319;48.974;8.462;2023-03-01T02:33:27;10.50;;;8.37;;
31746;SDS011;18319;48.974;8.462;2023-03-01T02:35:53;13.43;;;7.40;;
31746;SDS011;18319;48.974;8.462;2023-03-01T02:38:21;12.37;;;7.10;;
31746;SDS011;18319;48.974;8.462;2023-03-01T02:40:49;13.93;;;8.87;;
31746;SDS011;18319;48.974;8.462;2023-03-01T02:43:17;9.63;;;7.20;;
31746;SDS011;18319;48.974;8.462;2023-03-01T02:45:50;11.97;;;7.77;;
31746;SDS011;18319;48.974;8.462;2023-03-01T02:48:18;10.23;;;8.83;;
31746;SDS011;18319;48.974;8.462;2023-03-01T02:50:52;11.43;;;7.83;;
31746;SDS011;18319;48.974;8.462;2023-03-01T02:53:32;13.90;;;8.33;;
31746;SDS011;18319;48.974;8.462;2023-03-01T02:56:05;8.60;;;6.93;;
31746;SDS011;18319;48.974;8.462;2023-03-01T02:58:37;11.43;;;7.40;;
31746;SDS011;18319;48.974;8.462;2023-03-01T03:01:11;10.70;;;7.83;;
31746;SDS011;18319;48.974;8.462;2023-03-01T03:03:40;12.40;;;8.33;;
31746;SDS011;18319;48.974;8.462;2023-03-01T03:06:07;14.80;;;7.47;;
31746;SDS011;18319;48.974;8.462;2023-03-01T03:08:34;13.60;;;8.57;;
31746;SDS011;18319;48.974;8.462;2023-03-01T03:11:01;13.83;;;9.07;;
31746;SDS011;18319;48.974;8.462;2023-03-01T03:13:28;11.67;;;8.33;;
31746;SDS011;18319;48.974;8.462;2023-03-01T03:15:55;12.80;;;8.23;;
31746;SDS011;18319;48.974;8.462;2023-03-01T03:18:23;11.90;;;8.13;;
31746;SDS011;18319;48.974;8.462;2023-03-01T03:20:51;10.53;;;7.80;;
31746;SDS011;18319;48.974;8.462;2023-03-01T03:23:19;12.93;;;8.07;;
31746;SDS011;18319;48.974;8.462;2023-03-01T03:25:47;11.60;;;8.03;;
31746;SDS011;18319;48.974;8.462;2023-03-01T03:28:15;12.47;;;8.37;;
31746;SDS011;18319;48.974;8.462;2023-03-01T03:30:42;12.27;;;8.47;;
31746;SDS011;18319;48.974;8.462;2023-03-01T03:33:10;12.73;;;9.23;;
31746;SDS011;18319;48.974;8.462;2023-03-01T03:35:41;11.40;;;8.93;;
31746;SDS011;18319;48.974;8.462;2023-03-01T03:38:10;13.27;;;8.53;;
31746;SDS011;18319;48.974;8.462;2023-03-01T03:40:42;14.40;;;8.17;;
31746;SDS011;18319;48.974;8.462;2023-03-01T03:43:11;14.53;;;8.53;;
31746;SDS011;18319;48.974;8.462;2023-03-01T03:45:39;11.70;;;8.77;;
31746;SDS011;18319;48.974;8.462;2023-03-01T03:48:07;13.67;;;8.20;;
31746;SDS011;18319;48.974;8.462;2023-03-01T03:50:35;13.60;;;8.57;;
31746;SDS011;18319;48.974;8.462;2023-03-01T03:53:05;14.70;;;8.73;;
31746;SDS011;18319;48.974;8.462;2023-03-01T03:55:34;10.87;;;8.40;;
31746;SDS011;18319;48.974;8.462;2023-03-01T03:58:04;14.67;;;8.63;;
31746;SDS011;18319;48.974;8.462;2023-03-01T04:00:32;11.87;;;8.93;;
31746;SDS011;18319;48.974;8.462;2023-03-01T04:03:00;11.93;;;8.57;;
31746;SDS011;18319;48.974;8.462;2023-03-01T04:05:27;10.83;;;8.63;;
31746;SDS011;18319;48.974;8.462;2023-03-01T04:07:54;12.00;;;8.60;;
31746;SDS011;18319;48.974;8.462;2023-03-01T04:10:28;14.27;;;8.27;;
31746;SDS011;18319;48.974;8.462;2023-03-01T04:12:56;13.20;;;8.90;;
31746;SDS011;18319;48.974;8.462;2023-03-01T04:15:23;14.13;;;7.50;;
31746;SDS011;18319;48.974;8.462;2023-03-01T04:17:52;10.37;;;8.30;;
31746;SDS011;18319;48.974;8.462;2023-03-01T04:20:20;13.20;;;9.33;;
31746;SDS011;18319;48.974;8.462;2023-03-01T04:22:50;12.87;;;8.23;;
31746;SDS011;18319;48.974;8.462;2023-03-01T04:25:18;16.73;;;10.47;;
31746;SDS011;18319;48.974;8.462;2023-03-01T04:27:46;10.90;;;8.43;;
31746;SDS011;18319;48.974;8.462;2023-03-01T04:30:13;14.00;;;9.23;;
31746;SDS011;18319;48.974;8.462;2023-03-01T04:32:40;13.63;;;8.97;;
31746;SDS011;18319;48.974;8.462;2023-03-01T04:35:07;10.53;;;7.73;;
31746;SDS011;18319;48.974;8.462;2023-03-01T04:37:34;14.27;;;9.10;;
31746;SDS011;18319;48.974;8.462;2023-03-01T04:40:01;15.80;;;9.73;;
31746;SDS011;18319;48.974;8.462;2023-03-01T04:42:37;13.87;;;9.47;;
31746;SDS011;18319;48.974;8.462;2023-03-01T04:45:06;11.17;;;8.77;;
31746;SDS011;18319;48.974;8.462;2023-03-01T04:47:38;14.60;;;8.43;;
31746;SDS011;18319;48.974;8.462;2023-03-01T04:50:06;15.63;;;9.20;;
31746;SDS011;18319;48.974;8.462;2023-03-01T04:52:33;12.20;;;8.80;;
31746;SDS011;18319;48.974;8.462;2023-03-01T04:55:00;13.73;;;9.60;;
31746;SDS011;18319;48.974;8.462;2023-03-01T04:57:28;16.13;;;9.67;;
31746;SDS011;18319;48.974;8.462;2023-03-01T04:59:55;11.20;;;7.83;;
31746;SDS011;18319;48.974;8.462;2023-03-01T05:02:23;15.10;;;9.60;;
31746;SDS011;18319;48.974;8.462;2023-03-01T05:04:50;12.03;;;8.50;;
31746;SDS011;18319;48.974;8.462;2023-03-01T05:07:17;15.57;;;9.70;;
31746;SDS011;18319;48.974;8.462;2023-03-01T05:09:45;11.97;;;9.13;;
31746;SDS011;18319;48.974;8.462;2023-03-01T05:12:12;12.73;;;9.27;;
31746;SDS011;18319;48.974;8.462;2023-03-01T05:14:38;15.73;;;9.37;;
31746;SDS011;18319;48.974;8.462;2023-03-01T05:17:05;14.03;;;10.37;;
31746;SDS011;18319;48.974;8.462;2023-03-01T05:19:34;14.27;;;9.47;;
31746;SDS011;18319;48.974;8.462;2023-03-01T05:22:01;13.50;;;8.70;;
31746;SDS011;18319;48.974;8.462;2023-03-01T05:24:28;14.67;;;9.10;;
31746;SDS011;18319;48.974;8.462;2023-03-01T05:26:56;14.07;;;8.97;;
31746;SDS011;18319;48.974;8.462;2023-03-01T05:29:23;13.77;;;9.80;;
31746;SDS011;18319;48.974;8.462;2023-03-01T05:31:51;16.10;;;9.43;;
31746;SDS011;18319;48.974;8.462;2023-03-01T05:34:19;19.20;;;9.63;;
31746;SDS011;18319;48.974;8.462;2023-03-01T05:36:51;14.40;;;8.33;;
31746;SDS011;18319;48.974;8.462;2023-03-01T05:39:19;17.87;;;9.57;;
31746;SDS011;18319;48.974;8.462;2023-03-01T05:41:47;15.90;;;8.60;;
31746;SDS011;18319;48.974;8.462;2023-03-01T05:44:14;10.93;;;7.87;;
31746;SDS011;18319;48.974;8.462;2023-03-01T05:46:41;13.20;;;9.60;;
31746;SDS011;18319;48.974;8.462;2023-03-01T05:49:08;13.50;;;10.00;;
31746;SDS011;18319;48.974;8.462;2023-03-01T05:51:34;9.73;;;7.97;;
31746;SDS011;18319;48.974;8.462;2023-03-01T05:54:03;17.93;;;9.67;;
31746;SDS011;18319;48.974;8.462;2023-03-01T05:56:31;14.10;;;9.40;;
31746;SDS011;18319;48.974;8.462;2023-03-01T05:58:58;12.57;;;8.63;;
31746;SDS011;18319;48.974;8.462;2023-03-01T06:01:25;14.27;;;9.40;;
31746;SDS011;18319;48.974;8.462;2023-03-01T06:03:52;16.37;;;9.87;;
31746;SDS011;18319;48.974;8.462;2023-03-01T06:06:19;13.90;;;8.87;;
31746;SDS011;18319;48.974;8.462;2023-03-01T06:08:46;13.30;;;8.73;;
31746;SDS011;18319;48.974;8.462;2023-03-01T06:11:14;15.47;;;10.33;;
31746;SDS011;18319;48.974;8.462;2023-03-01T06:13:41;12.03;;;8.23;;
31746;SDS011;18319;48.974;8.462;2023-03-01T06:16:08;12.97;;;8.90;;
31746;SDS011;18319;48.974;8.462;2023-03-01T06:18:35;20.87;;;8.70;;
31746;SDS011;18319;48.974;8.462;2023-03-01T06:21:02;13.77;;;8.17;;
31746;SDS011;18319;48.974;8.462;2023-03-01T06:23:30;16.30;;;8.93;;
31746;SDS011;18319;48.974;8.462;2023-03-01T06:25:57;18.00;;;9.50;;
31746;SDS011;18319;48.974;8.462;2023-03-01T06:28:25;13.97;;;9.13;;
31746;SDS011;18319;48.974;8.462;2023-03-01T06:30:52;15.90;;;9.87;;
31746;SDS011;18319;48.974;8.462;2023-03-01T06:33:19;18.63;;;9.87;;
31746;SDS011;18319;48.974;8.462;2023-03-01T06:35:48;14.90;;;8.67;;
31746;SDS011;18319;48.974;8.462;2023-03-01T06:38:15;17.33;;;9.20;;
31746;SDS011;18319;48.974;8.462;2023-03-01T06:40:43;15.07;;;9.63;;
31746;SDS011;18319;48.974;8.462;2023-03-01T06:43:11;13.83;;;8.60;;
31746;SDS011;18319;48.974;8.462;2023-03-01T06:45:39;16.27;;;10.13;;
31746;SDS011;18319;48.974;8.462;2023-03-01T06:48:06;12.97;;;9.33;;
31746;SDS011;18319;48.974;8.462;2023-03-01T06:50:34;18.50;;;9.63;;
31746;SDS011;18319;48.974;8.462;2023-03-01T06:53:01;13.10;;;8.57;;
31746;SDS011;18319;48.974;8.462;2023-03-01T06:55:28;15.10;;;9.83;;
31746;SDS011;18319;48.974;8.462;2023-03-01T07:00:24;17.50;;;9.93;;
31746;SDS011;18319;48.974;8.462;2023-03-01T07:02:52;19.17;;;11.27;;
31746;SDS011;18319;48.974;8.462;2023-03-01T07:05:19;15.23;;;9.90;;
31746;SDS011;18319;48.974;8.462;2023-03-01T07:07:46;16.47;;;9.40;;
31746;SDS011;18319;48.974;8.462;2023-03-01T07:10:13;16.03;;;9.77;;
31746;SDS011;18319;48.974;8.462;2023-03-01T07:12:40;15.47;;;10.23;;
31746;SDS011;18319;48.974;8.462;2023-03-01T07:15:08;16.67;;;10.50;;
31746;SDS011;18319;48.974;8.462;2023-03-01T07:17:36;16.30;;;10.47;;
31746;SDS011;18319;48.974;8.462;2023-03-01T07:20:04;18.73;;;10.63;;
31746;SDS011;18319;48.974;8.462;2023-03-01T07:22:32;17.33;;;10.00;;
31746;SDS011;18319;48.974;8.462;2023-03-01T07:24:58;23.57;;;11.70;;
31746;SDS011;18319;48.974;8.462;2023-03-01T07:27:25;21.03;;;10.27;;
31746;SDS011;18319;48.974;8.462;2023-03-01T07:29:52;18.30;;;10.00;;
31746;SDS011;18319;48.974;8.462;2023-03-01T07:32:18;15.10;;;10.27;;
31746;SDS011;18319;48.974;8.462;2023-03-01T07:34:45;21.40;;;10.93;;
31746;SDS011;18319;48.974;8.462;2023-03-01T07:37:13;16.20;;;11.37;;
31746;SDS011;18319;48.974;8.462;2023-03-01T07:39:40;19.83;;;10.93;;
31746;SDS011;18319;48.974;8.462;2023-03-01T07:42:07;18.80;;;11.27;;
31746;SDS011;18319;48.974;8.462;2023-03-01T07:44:34;15.83;;;10.20;;
31746;SDS011;18319;48.974;8.462;2023-03-01T07:47:00;16.93;;;10.13;;
31746;SDS011;18319;48.974;8.462;2023-03-01T07:49:28;16.20;;;10.43;;
31746;SDS011;18319;48.974;8.462;2023-03-01T07:51:55;17.30;;;11.27;;
31746;SDS011;18319;48.974;8.462;2023-03-01T07:54:23;20.07;;;9.90;;
31746;SDS011;18319;48.974;8.462;2023-03-01T07:56:51;15.97;;;10.80;;
31746;SDS011;18319;48.974;8.462;2023-03-01T07:59:19;19.30;;;11.73;;
31746;SDS011;18319;48.974;8.462;2023-03-01T08:01:46;15.67;;;9.90;;
31746;SDS011;18319;48.974;8.462;2023-03-01T08:04:13;17.97;;;9.97;;
31746;SDS011;18319;48.974;8.462;2023-03-01T08:06:39;20.70;;;11.27;;
31746;SDS011;18319;48.974;8.462;2023-03-01T08:09:06;14.87;;;10.27;;
31746;SDS011;18319;48.974;8.462;2023-03-01T08:11:35;16.00;;;10.23;;
31746;SDS011;18319;48.974;8.462;2023-03-01T08:14:02;17.13;;;10.40;;
31746;SDS011;18319;48.974;8.462;2023-03-01T08:16:29;16.17;;;11.67;;
31746;SDS011;18319;48.974;8.462;2023-03-01T08:18:57;15.43;;;10.70;;
31746;SDS011;18319;48.974;8.462;2023-03-01T08:21:29;16.77;;;9.37;;
31746;SDS011;18319;48.974;8.462;2023-03-01T08:23:55;18.87;;;11.37;;
31746;SDS011;18319;48.974;8.462;2023-03-01T08:26:22;20.97;;;12.03;;
31746;SDS011;18319;48.974;8.462;2023-03-01T08:28:50;18.53;;;10.83;;
31746;SDS011;18319;48.974;8.462;2023-03-01T08:31:18;17.80;;;10.83;;
31746;SDS011;18319;48.974;8.462;2023-03-01T08:33:47;19.07;;;10.53;;
31746;SDS011;18319;48.974;8.462;2023-03-01T08:36:20;18.03;;;10.43;;
31746;SDS011;18319;48.974;8.462;2023-03-01T08:38:47;17.23;;;10.50;;
31746;SDS011;18319;48.974;8.462;2023-03-01T08:41:14;18.97;;;11.60;;
31746;SDS011;18319;48.974;8.462;2023-03-01T08:43:41;19.13;;;12.07;;
31746;SDS011;18319;48.974;8.462;2023-03-01T08:46:10;15.40;;;10.27;;
31746;SDS011;18319;48.974;8.462;2023-03-01T08:48:37;17.93;;;11.50;;
31746;SDS011;18319;48.974;8.462;2023-03-01T08:51:08;19.90;;;12.13;;
31746;SDS011;18319;48.974;8.462;2023-03-01T08:53:35;19.13;;;11.40;;
31746;SDS011;18319;48.974;8.462;2023-03-01T08:56:02;16.50;;;11.47;;
31746;SDS011;18319;48.974;8.462;2023-03-01T08:58:29;19.57;;;11.73;;
31746;SDS011;18319;48.974;8.462;2023-03-01T09:00:56;17.53;;;10.60;;
31746;SDS011;18319;48.974;8.462;2023-03-01T09:03:25;20.00;;;11.97;;
31746;SDS011;18319;48.974;8.462;2023-03-01T09:05:52;18.93;;;12.53;;
31746;SDS011;18319;48.974;8.462;2023-03-01T09:08:18;17.63;;;10.47;;
31746;SDS011;18319;48.974;8.462;2023-03-01T09:10:45;21.10;;;12.73;;
31746;SDS011;18319;48.974;8.462;2023-03-01T09:13:12;16.30;;;11.53;;
31746;SDS011;18319;48.974;8.462;2023-03-01T09:15:39;15.97;;;10.87;;
31746;SDS011;18319;48.974;8.462;2023-03-01T09:18:06;20.20;;;11.67;;
31746;SDS011;18319;48.974;8.462;2023-03-01T09:20:34;18.57;;;10.77;;
31746;SDS011;18319;48.974;8.462;2023-03-01T09:23:01;20.17;;;12.33;;
31746;SDS011;18319;48.974;8.462;2023-03-01T09:25:27;22.67;;;12.50;;
31746;SDS011;18319;48.974;8.462;2023-03-01T09:27:54;18.73;;;13.00;;
31746;SDS011;18319;48.974;8.462;2023-03-01T09:30:21;17.37;;;11.33;;
31746;SDS011;18319;48.974;8.462;2023-03-01T09:32:49;20.43;;;11.30;;
31746;SDS011;18319;48.974;8.462;2023-03-01T09:35:15;20.00;;;12.13;;
31746;SDS011;18319;48.974;8.462;2023-03-01T09:37:45;18.40;;;12.63;;
31746;SDS011;18319;48.974;8.462;2023-03-01T09:40:12;18.33;;;13.10;;
31746;SDS011;18319;48.974;8.462;2023-03-01T09:42:45;24.77;;;12.33;;
31746;SDS011;18319;48.974;8.462;2023-03-01T09:45:17;19.93;;;12.17;;
31746;SDS011;18319;48.974;8.462;2023-03-01T09:47:51;20.13;;;13.60;;
31746;SDS011;18319;48.974;8.462;2023-03-01T09:50:20;19.27;;;13.20;;
31746;SDS011;18319;48.974;8.462;2023-03-01T09:52:50;16.67;;;11.33;;
31746;SDS011;18319;48.974;8.462;2023-03-01T09:55:26;18.53;;;12.17;;
31746;SDS011;18319;48.974;8.462;2023-03-01T09:58:00;20.33;;;12.07;;
31746;SDS011;18319;48.974;8.462;2023-03-01T10:00:36;17.80;;;12.23;;
31746;SDS011;18319;48.974;8.462;2023-03-01T10:03:11;18.50;;;12.83;;
31746;SDS011;18319;48.974;8.462;2023-03-01T10:05:45;22.20;;;12.60;;
31746;SDS011;18319;48.974;8.462;2023-03-01T10:08:35;18.13;;;11.23;;
31746;SDS011;18319;48.974;8.462;2023-03-01T10:11:12;19.63;;;12.70;;
31746;SDS011;18319;48.974;8.462;2023-03-01T10:13:46;17.23;;;11.13;;
31746;SDS011;18319;48.974;8.462;2023-03-01T10:16:21;18.00;;;11.90;;
31746;SDS011;18319;48.974;8.462;2023-03-01T10:18:54;20.17;;;12.73;;
31746;SDS011;18319;48.974;8.462;2023-03-01T10:21:25;18.07;;;12.03;;
31746;SDS011;18319;48.974;8.462;2023-03-01T10:23:55;19.57;;;13.20;;
31746;SDS011;18319;48.974;8.462;2023-03-01T10:26:35;18.27;;;12.63;;
31746;SDS011;18319;48.974;8.462;2023-03-01T10:29:11;19.10;;;12.93;;
31746;SDS011;18319;48.974;8.462;2023-03-01T10:31:39;17.80;;;12.63;;
31746;SDS011;18319;48.974;8.462;2023-03-01T10:34:13;17.83;;;12.03;;
31746;SDS011;18319;48.974;8.462;2023-03-01T10:36:41;19.70;;;12.40;;
31746;SDS011;18319;48.974;8.462;2023-03-01T10:39:13;20.67;;;14.17;;
31746;SDS011;18319;48.974;8.462;2023-03-01T10:41:57;16.00;;;12.13;;
31746;SDS011;18319;48.974;8.462;2023-03-01T10:44:42;22.07;;;12.57;;
31746;SDS011;18319;48.974;8.462;2023-03-01T10:47:14;20.57;;;13.37;;
31746;SDS011;18319;48.974;8.462;2023-03-01T10:49:56;22.77;;;13.07;;
31746;SDS011;18319;48.974;8.462;2023-03-01T10:52:26;19.63;;;13.40;;
31746;SDS011;18319;48.974;8.462;2023-03-01T10:54:56;21.53;;;13.13;;
31746;SDS011;18319;48.974;8.462;2023-03-01T10:57:28;23.37;;;14.13;;
31746;SDS011;18319;48.974;8.462;2023-03-01T11:00:16;18.80;;;12.97;;
31746;SDS011;18319;48.974;8.462;2023-03-01T11:02:49;20.33;;;13.37;;
31746;SDS011;18319;48.974;8.462;2023-03-01T11:05:21;21.90;;;13.27;;
31746;SDS011;18319;48.974;8.462;2023-03-01T11:07:50;16.13;;;11.90;;
31746;SDS011;18319;48.974;8.462;2023-03-01T11:10:21;21.23;;;12.60;;
31746;SDS011;18319;48.974;8.462;2023-03-01T11:12:50;18.30;;;11.63;;
31746;SDS011;18319;48.974;8.462;2023-03-01T11:15:22;23.13;;;14.37;;
31746;SDS011;18319;48.974;8.462;2023-03-01T11:17:52;22.03;;;12.93;;
31746;SDS011;18319;48.974;8.462;2023-03-01T11:20:23;16.33;;;12.30;;
31746;SDS011;18319;48.974;8.462;2023-03-01T11:22:56;17.80;;;13.23;;
31746;SDS011;18319;48.974;8.462;2023-03-01T11:25:27;18.23;;;11.93;;
31746;SDS011;18319;48.974;8.462;2023-03-01T11:27:58;18.50;;;12.57;;
31746;SDS011;18319;48.974;8.462;2023-03-01T11:30:28;19.40;;;12.80;;
31746;SDS011;18319;48.974;8.462;2023-03-01T11:33:05;17.07;;;12.30;;
31746;SDS011;18319;48.974;8.462;2023-03-01T11:35:41;18.67;;;12.50;;
31746;SDS011;18319;48.974;8.462;2023-03-01T11:38:20;17.87;;;13.03;;
31746;SDS011;18319;48.974;8.462;2023-03-01T11:40:51;19.83;;;13.63;;
31746;SDS011;18319;48.974;8.462;2023-03-01T11:43:26;17.93;;;12.97;;
31746;SDS011;18319;48.974;8.462;2023-03-01T11:49:03;18.93;;;12.33;;
31746;SDS011;18319;48.974;8.462;2023-03-01T11:51:46;18.47;;;13.20;;
31746;SDS011;18319;48.974;8.462;2023-03-01T11:54:23;17.23;;;12.43;;
31746;SDS011;18319;48.974;8.462;2023-03-01T11:57:00;19.87;;;12.30;;
31746;SDS011;18319;48.974;8.462;2023-03-01T11:59:41;17.87;;;12.37;;
31746;SDS011;18319;48.974;8.462;2023-03-01T12:02:23;18.43;;;11.90;;
31746;SDS011;18319;48.974;8.462;2023-03-01T12:05:12;17.07;;;11.80;;
31746;SDS011;18319;48.974;8.462;2023-03-01T12:07:50;20.00;;;12.40;;
31746;SDS011;18319;48.974;8.462;2023-03-01T12:10:25;17.70;;;12.50;;
31746;SDS011;18319;48.974;8.462;2023-03-01T12:13:02;17.83;;;12.40;;
31746;SDS011;18319;48.974;8.462;2023-03-01T12:15:55;18.27;;;12.80;;
31746;SDS011;18319;48.974;8.462;2023-03-01T12:21:46;18.77;;;12.77;;
31746;SDS011;18319;48.974;8.462;2023-03-01T12:24:33;15.87;;;12.10;;
31746;SDS011;18319;48.974;8.462;2023-03-01T12:27:20;17.17;;;11.87;;
31746;SDS011;18319;48.974;8.462;2023-03-01T12:30:01;18.40;;;12.33;;
31746;SDS011;18319;48.974;8.462;2023-03-01T12:32:43;17.80;;;12.07;;
31746;SDS011;18319;48.974;8.462;2023-03-01T12:35:25;18.47;;;12.63;;
31746;SDS011;18319;48.974;8.462;2023-03-01T12:38:23;18.57;;;12.17;;
31746;SDS011;18319;48.974;8.462;2023-03-01T12:41:16;17.20;;;12.07;;
31746;SDS011;18319;48.974;8.462;2023-03-01T12:44:00;16.63;;;12.03;;
31746;SDS011;18319;48.974;8.462;2023-03-01T12:46:39;20.97;;;13.63;;
31746;SDS011;18319;48.974;8.462;2023-03-01T12:49:18;22.67;;;12.50;;
31746;SDS011;18319;48.974;8.462;2023-03-01T12:51:50;18.50;;;12.93;;
31746;SDS011;18319;48.974;8.462;2023-03-01T12:54:22;16.40;;;12.57;;
31746;SDS011;18319;48.974;8.462;2023-03-01T12:56:54;18.83;;;12.37;;
31746;SDS011;18319;48.974;8.462;2023-03-01T12:59:23;18.97;;;12.37;;
31746;SDS011;18319;48.974;8.462;2023-03-01T13:02:00;15.83;;;11.67;;
31746;SDS011;18319;48.974;8.462;2023-03-01T13:04:35;17.20;;;12.27;;
31746;SDS011;18319;48.974;8.462;2023-03-01T13:07:13;18.83;;;14.53;;
31746;SDS011;18319;48.974;8.462;2023-03-01T13:09:47;17.73;;;12.73;;
31746;SDS011;18319;48.974;8.462;2023-03-01T13:12:42;17.70;;;11.87;;
31746;SDS011;18319;48.974;8.462;2023-03-01T13:15:34;16.53;;;12.70;;
31746;SDS011;18319;48.974;8.462;2023-03-01T13:18:04;15.70;;;11.63;;
31746;SDS011;18319;48.974;8.462;2023-03-01T13:20:55;18.60;;;13.60;;
31746;SDS011;18319;48.974;8.462;2023-03-01T13:23:26;20.23;;;13.03;;
31746;SDS011;18319;48.974;8.462;2023-03-01T13:26:05;16.93;;;12.63;;
31746;SDS011;18319;48.974;8.462;2023-03-01T13:28:39;18.93;;;14.43;;
31746;SDS011;18319;48.974;8.462;2023-03-01T13:31:07;14.90;;;11.13;;
31746;SDS011;18319;48.974;8.462;2023-03-01T13:33:41;18.10;;;12.63;;
31746;SDS011;18319;48.974;8.462;2023-03-01T13:36:10;16.97;;;11.83;;
31746;SDS011;18319;48.974;8.462;2023-03-01T13:38:45;18.60;;;12.90;;
31746;SDS011;18319;48.974;8.462;2023-03-01T13:41:14;19.57;;;12.50;;
31746;SDS011;18319;48.974;8.462;2023-03-01T13:43:43;20.40;;;12.53;;
31746;SDS011;18319;48.974;8.462;2023-03-01T13:46:15;18.00;;;12.70;;
31746;SDS011;18319;48.974;8.462;2023-03-01T13:48:47;18.20;;;12.10;;
31746;SDS011;18319;48.974;8.462;2023-03-01T13:51:19;17.57;;;11.53;;
31746;SDS011;18319;48.974;8.462;2023-03-01T13:53:49;17.37;;;12.13;;
31746;SDS011;18319;48.974;8.462;2023-03-01T13:56:16;16.93;;;12.10;;
31746;SDS011;18319;48.974;8.462;2023-03-01T13:58:50;18.23;;;12.57;;
31746;SDS011;18319;48.974;8.462;2023-03-01T14:01:24;16.33;;;10.73;;
31746;SDS011;18319;48.974;8.462;2023-03-01T14:03:54;18.67;;;12.20;;
31746;SDS011;18319;48.974;8.462;2023-03-01T14:06:22;21.67;;;11.97;;
31746;SDS011;18319;48.974;8.462;2023-03-01T14:09:02;17.87;;;11.73;;
31746;SDS011;18319;48.974;8.462;2023-03-01T14:14:34;17.03;;;11.27;;
31746;SDS011;18319;48.974;8.462;2023-03-01T14:17:10;15.70;;;11.40;;
31746;SDS011;18319;48.974;8.462;2023-03-01T14:19:57;17.40;;;11.73;;
31746;SDS011;18319;48.974;8.462;2023-03-01T14:22:27;18.13;;;12.17;;
31746;SDS011;18319;48.974;8.462;2023-03-01T14:24:55;15.97;;;11.03;;
31746;SDS011;18319;48.974;8.462;2023-03-01T14:27:25;18.50;;;12.00;;
31746;SDS011;18319;48.974;8.462;2023-03-01T14:30:09;19.00;;;12.40;;
31746;SDS011;18319;48.974;8.462;2023-03-01T14:32:40;16.33;;;11.53;;
31746;SDS011;18319;48.974;8.462;2023-03-01T14:35:18;16.47;;;11.37;;
31746;SDS011;18319;48.974;8.462;2023-03-01T14:37:46;15.07;;;11.47;;
31746;SDS011;18319;48.974;8.462;2023-03-01T14:40:21;15.90;;;11.27;;
31746;SDS011;18319;48.974;8.462;2023-03-01T14:42:50;16.67;;;11.87;;
31746;SDS011;18319;48.974;8.462;2023-03-01T14:45:18;16.03;;;12.17;;
31746;SDS011;18319;48.974;8.462;2023-03-01T14:47:45;20.93;;;13.20;;
31746;SDS011;18319;48.974;8.462;2023-03-01T14:50:18;17.87;;;12.03;;
31746;SDS011;18319;48.974;8.462;2023-03-01T14:52:50;16.23;;;12.07;;
31746;SDS011;18319;48.974;8.462;2023-03-01T14:55:20;16.27;;;11.70;;
31746;SDS011;18319;48.974;8.462;2023-03-01T14:57:51;16.47;;;10.90;;
31746;SDS011;18319;48.974;8.462;2023-03-01T15:00:19;14.27;;;11.60;;